sensor_id;sensor_type;location;lat;lon;timestamp;pressure;altitude;pressure_sealevel;temperature;humidity
30730;BME280;17476;48.458;7.928;2023-05-01T00:01:20;99862.34;;;13.19;75.56
30730;BME280;17476;48.458;7.928;2023-05-01T00:03:46;99855.47;;;13.18;75.84
30730;BME280;17476;48.458;7.928;2023-05-01T00:06:11;99857.09;;;13.19;75.79
30730;BME280;17476;48.458;7.928;2023-05-01T00:08:37;99852.66;;;13.20;75.86
30730;BME280;17476;48.458;7.928;2023-05-01T00:11:03;99855.97;;;13.22;75.77
30730;BME280;17476;48.458;7.928;2023-05-01T00:13:30;99846.28;;;13.22;75.32
30730;BME280;17476;48.458;7.928;2023-05-01T00:15:56;99841.81;;;13.23;75.67
30730;BME280;17476;48.458;7.928;2023-05-01T00:18:22;99839.00;;;13.24;75.96
30730;BME280;17476;48.458;7.928;2023-05-01T00:20:48;99846.28;;;13.22;76.63
30730;BME280;17476;48.458;7.928;2023-05-01T00:23:14;99843.25;;;13.10;78.26
30730;BME280;17476;48.458;7.928;2023-05-01T00:25:40;99838.28;;;13.01;78.42
30730;BME280;17476;48.458;7.928;2023-05-01T00:28:05;99844.34;;;13.01;77.65
30730;BME280;17476;48.458;7.928;2023-05-01T00:30:32;99828.22;;;13.04;77.79
30730;BME280;17476;48.458;7.928;2023-05-01T00:32:59;99835.38;;;13.10;77.63
30730;BME280;17476;48.458;7.928;2023-05-01T00:35:26;99828.03;;;13.21;76.79
30730;BME280;17476;48.458;7.928;2023-05-01T00:37:52;99827.50;;;13.25;76.40
30730;BME280;17476;48.458;7.928;2023-05-01T00:40:18;99830.41;;;13.30;75.70
30730;BME280;17476;48.458;7.928;2023-05-01T00:42:44;99820.59;;;13.39;75.39
30730;BME280;17476;48.458;7.928;2023-05-01T00:45:10;99820.25;;;13.42;75.44
30730;BME280;17476;48.458;7.928;2023-05-01T00:47:37;99819.16;;;13.36;75.70
30730;BME280;17476;48.458;7.928;2023-05-01T00:50:04;99821.16;;;13.34;76.12
30730;BME280;17476;48.458;7.928;2023-05-01T00:52:30;99811.00;;;13.31;76.03
30730;BME280;17476;48.458;7.928;2023-05-01T00:54:57;99805.34;;;13.28;76.84
30730;BME280;17476;48.458;7.928;2023-05-01T00:57:23;99800.81;;;13.22;75.62
30730;BME280;17476;48.458;7.928;2023-05-01T00:59:49;99797.50;;;13.20;76.07
30730;BME280;17476;48.458;7.928;2023-05-01T01:02:15;99803.13;;;13.17;76.60
30730;BME280;17476;48.458;7.928;2023-05-01T01:04:45;99795.88;;;13.19;76.18
30730;BME280;17476;48.458;7.928;2023-05-01T01:07:38;99786.38;;;13.18;76.14
30730;BME280;17476;48.458;7.928;2023-05-01T01:10:30;99784.28;;;13.13;76.72
30730;BME280;17476;48.458;7.928;2023-05-01T01:13:29;99781.44;;;12.93;78.42
30730;BME280;17476;48.458;7.928;2023-05-01T01:16:19;99777.00;;;12.79;79.42
30730;BME280;17476;48.458;7.928;2023-05-01T01:21:38;99765.78;;;12.85;79.16
30730;BME280;17476;48.458;7.928;2023-05-01T01:24:45;99767.69;;;12.91;77.97
30730;BME280;17476;48.458;7.928;2023-05-01T01:33:46;99755.09;;;13.01;78.03
30730;BME280;17476;48.458;7.928;2023-05-01T01:36:41;99760.97;;;13.03;77.18
30730;BME280;17476;48.458;7.928;2023-05-01T01:40:07;99754.91;;;13.03;77.38
30730;BME280;17476;48.458;7.928;2023-05-01T01:42:14;99758.16;;;13.05;77.94
30730;BME280;17476;48.458;7.928;2023-05-01T01:44:51;99754.53;;;13.06;77.32
30730;BME280;17476;48.458;7.928;2023-05-01T01:47:19;99754.44;;;13.14;76.54
30730;BME280;17476;48.458;7.928;2023-05-01T01:49:50;99752.97;;;13.11;77.40
30730;BME280;17476;48.458;7.928;2023-05-01T01:52:19;99753.97;;;13.10;77.37
30730;BME280;17476;48.458;7.928;2023-05-01T01:54:51;99756.00;;;13.08;77.40
30730;BME280;17476;48.458;7.928;2023-05-01T01:57:20;99752.72;;;13.06;77.25
30730;BME280;17476;48.458;7.928;2023-05-01T01:59:48;99753.78;;;13.12;76.74
30730;BME280;17476;48.458;7.928;2023-05-01T02:02:18;99751.63;;;13.16;76.58
30730;BME280;17476;48.458;7.928;2023-05-01T02:04:47;99746.19;;;13.17;75.69
30730;BME280;17476;48.458;7.928;2023-05-01T02:07:14;99748.00;;;13.17;75.11
30730;BME280;17476;48.458;7.928;2023-05-01T02:09:42;99744.91;;;13.13;75.33
30730;BME280;17476;48.458;7.928;2023-05-01T02:12:10;99749.00;;;13.16;76.23
30730;BME280;17476;48.458;7.928;2023-05-01T02:14:36;99735.72;;;13.02;76.88
30730;BME280;17476;48.458;7.928;2023-05-01T02:17:04;99740.31;;;13.00;76.50
30730;BME280;17476;48.458;7.928;2023-05-01T02:19:32;99736.06;;;12.99;76.80
30730;BME280;17476;48.458;7.928;2023-05-01T02:21:58;99733.28;;;13.01;76.18
30730;BME280;17476;48.458;7.928;2023-05-01T02:24:27;99726.56;;;12.98;77.29
30730;BME280;17476;48.458;7.928;2023-05-01T02:27:11;99738.88;;;12.98;77.64
30730;BME280;17476;48.458;7.928;2023-05-01T02:29:38;99734.56;;;12.90;77.98
30730;BME280;17476;48.458;7.928;2023-05-01T02:32:04;99739.44;;;12.93;77.71
30730;BME280;17476;48.458;7.928;2023-05-01T02:34:34;99740.25;;;12.94;77.30
30730;BME280;17476;48.458;7.928;2023-05-01T02:37:00;99734.19;;;12.93;77.08
30730;BME280;17476;48.458;7.928;2023-05-01T02:39:26;99733.56;;;12.91;77.25
30730;BME280;17476;48.458;7.928;2023-05-01T02:41:54;99731.56;;;12.93;77.46
30730;BME280;17476;48.458;7.928;2023-05-01T02:44:23;99730.94;;;12.91;77.57
30730;BME280;17476;48.458;7.928;2023-05-01T02:46:51;99734.75;;;12.89;77.85
30730;BME280;17476;48.458;7.928;2023-05-01T02:49:18;99726.41;;;12.85;78.34
30730;BME280;17476;48.458;7.928;2023-05-01T02:51:45;99726.22;;;12.87;78.79
30730;BME280;17476;48.458;7.928;2023-05-01T02:54:12;99727.41;;;12.84;79.22
30730;BME280;17476;48.458;7.928;2023-05-01T02:56:38;99724.59;;;12.85;78.67
30730;BME280;17476;48.458;7.928;2023-05-01T02:59:04;99724.16;;;12.82;79.42
30730;BME280;17476;48.458;7.928;2023-05-01T03:01:30;99723.50;;;12.80;78.72
30730;BME280;17476;48.458;7.928;2023-05-01T03:03:56;99728.03;;;12.86;78.67
30730;BME280;17476;48.458;7.928;2023-05-01T03:06:22;99723.06;;;12.91;78.04
30730;BME280;17476;48.458;7.928;2023-05-01T03:08:48;99724.59;;;12.85;78.58
30730;BME280;17476;48.458;7.928;2023-05-01T03:11:14;99717.47;;;12.65;80.97
30730;BME280;17476;48.458;7.928;2023-05-01T03:13:40;99714.59;;;12.45;82.79
30730;BME280;17476;48.458;7.928;2023-05-01T03:16:06;99705.00;;;12.37;82.69
30730;BME280;17476;48.458;7.928;2023-05-01T03:18:32;99708.53;;;12.44;82.00
30730;BME280;17476;48.458;7.928;2023-05-01T03:20:58;99711.97;;;12.60;81.59
30730;BME280;17476;48.458;7.928;2023-05-01T03:23:24;99706.44;;;12.69;80.79
30730;BME280;17476;48.458;7.928;2023-05-01T03:25:50;99714.75;;;12.73;80.69
30730;BME280;17476;48.458;7.928;2023-05-01T03:28:16;99712.13;;;12.73;80.52
30730;BME280;17476;48.458;7.928;2023-05-01T03:30:43;99705.25;;;12.72;80.69
30730;BME280;17476;48.458;7.928;2023-05-01T03:33:09;99708.16;;;12.77;80.60
30730;BME280;17476;48.458;7.928;2023-05-01T03:35:35;99710.22;;;12.81;80.25
30730;BME280;17476;48.458;7.928;2023-05-01T03:38:01;99708.44;;;12.82;80.36
30730;BME280;17476;48.458;7.928;2023-05-01T03:40:27;99706.81;;;12.81;80.16
30730;BME280;17476;48.458;7.928;2023-05-01T03:42:53;99704.00;;;12.82;80.37
30730;BME280;17476;48.458;7.928;2023-05-01T03:45:19;99707.69;;;12.88;80.77
30730;BME280;17476;48.458;7.928;2023-05-01T03:47:44;99717.81;;;12.91;80.05
30730;BME280;17476;48.458;7.928;2023-05-01T03:50:11;99714.84;;;12.94;80.10
30730;BME280;17476;48.458;7.928;2023-05-01T03:52:38;99715.00;;;12.93;80.64
30730;BME280;17476;48.458;7.928;2023-05-01T03:55:04;99713.09;;;12.87;80.56
30730;BME280;17476;48.458;7.928;2023-05-01T03:57:30;99713.94;;;12.87;80.81
30730;BME280;17476;48.458;7.928;2023-05-01T03:59:56;99714.56;;;12.89;80.68
30730;BME280;17476;48.458;7.928;2023-05-01T04:02:22;99714.84;;;12.94;80.58
30730;BME280;17476;48.458;7.928;2023-05-01T04:04:48;99715.66;;;12.95;80.60
30730;BME280;17476;48.458;7.928;2023-05-01T04:07:14;99724.06;;;12.90;81.07
30730;BME280;17476;48.458;7.928;2023-05-01T04:09:40;99722.78;;;12.86;81.46
30730;BME280;17476;48.458;7.928;2023-05-01T04:12:05;99725.91;;;12.75;82.57
30730;BME280;17476;48.458;7.928;2023-05-01T04:14:31;99731.78;;;12.62;83.64
30730;BME280;17476;48.458;7.928;2023-05-01T04:16:57;99730.88;;;12.55;84.19
30730;BME280;17476;48.458;7.928;2023-05-01T04:19:23;99725.97;;;12.52;83.79
30730;BME280;17476;48.458;7.928;2023-05-01T04:21:49;99727.34;;;12.63;83.22
30730;BME280;17476;48.458;7.928;2023-05-01T04:24:15;99726.06;;;12.73;82.57
30730;BME280;17476;48.458;7.928;2023-05-01T04:26:41;99721.09;;;12.78;82.04
30730;BME280;17476;48.458;7.928;2023-05-01T04:29:08;99733.59;;;12.76;82.60
30730;BME280;17476;48.458;7.928;2023-05-01T04:31:34;99728.06;;;12.71;82.62
30730;BME280;17476;48.458;7.928;2023-05-01T04:34:00;99724.81;;;12.54;84.30
30730;BME280;17476;48.458;7.928;2023-05-01T04:36:26;99735.03;;;12.49;84.95
30730;BME280;17476;48.458;7.928;2023-05-01T04:38:52;99735.13;;;12.41;86.42
30730;BME280;17476;48.458;7.928;2023-05-01T04:41:18;99739.63;;;12.18;88.92
30730;BME280;17476;48.458;7.928;2023-05-01T04:43:44;99741.50;;;12.09;89.93
30730;BME280;17476;48.458;7.928;2023-05-01T04:46:09;99740.88;;;12.07;90.46
30730;BME280;17476;48.458;7.928;2023-05-01T04:48:36;99737.88;;;12.10;89.42
30730;BME280;17476;48.458;7.928;2023-05-01T04:51:02;99739.63;;;12.18;88.75
30730;BME280;17476;48.458;7.928;2023-05-01T04:53:28;99738.09;;;12.23;88.46
30730;BME280;17476;48.458;7.928;2023-05-01T04:55:54;99740.19;;;12.28;88.45
30730;BME280;17476;48.458;7.928;2023-05-01T04:58:20;99751.78;;;12.34;87.21
30730;BME280;17476;48.458;7.928;2023-05-01T05:00:46;99747.69;;;12.46;86.11
30730;BME280;17476;48.458;7.928;2023-05-01T05:03:11;99744.53;;;12.50;86.51
30730;BME280;17476;48.458;7.928;2023-05-01T05:05:37;99738.75;;;12.40;86.84
30730;BME280;17476;48.458;7.928;2023-05-01T05:08:05;99749.97;;;12.49;85.67
30730;BME280;17476;48.458;7.928;2023-05-01T05:10:31;99750.97;;;12.63;84.03
30730;BME280;17476;48.458;7.928;2023-05-01T05:12:56;99754.03;;;12.66;83.39
30730;BME280;17476;48.458;7.928;2023-05-01T05:15:22;99763.09;;;12.64;83.16
30730;BME280;17476;48.458;7.928;2023-05-01T05:17:48;99760.66;;;12.62;83.71
30730;BME280;17476;48.458;7.928;2023-05-01T05:20:14;99755.91;;;12.72;82.50
30730;BME280;17476;48.458;7.928;2023-05-01T05:22:40;99761.97;;;12.73;82.30
30730;BME280;17476;48.458;7.928;2023-05-01T05:25:06;99766.41;;;12.72;82.24
30730;BME280;17476;48.458;7.928;2023-05-01T05:27:32;99754.75;;;12.75;81.34
30730;BME280;17476;48.458;7.928;2023-05-01T05:30:05;99768.50;;;12.77;80.89
30730;BME280;17476;48.458;7.928;2023-05-01T05:32:32;99772.03;;;12.84;80.42
30730;BME280;17476;48.458;7.928;2023-05-01T05:34:58;99766.44;;;12.87;80.38
30730;BME280;17476;48.458;7.928;2023-05-01T05:37:24;99766.75;;;12.99;79.60
30730;BME280;17476;48.458;7.928;2023-05-01T05:39:54;99762.97;;;13.01;79.93
30730;BME280;17476;48.458;7.928;2023-05-01T05:42:19;99766.41;;;13.02;80.06
30730;BME280;17476;48.458;7.928;2023-05-01T05:44:45;99762.16;;;13.01;79.90
30730;BME280;17476;48.458;7.928;2023-05-01T05:47:11;99766.66;;;13.07;79.80
30730;BME280;17476;48.458;7.928;2023-05-01T05:49:37;99768.13;;;13.09;79.68
30730;BME280;17476;48.458;7.928;2023-05-01T05:52:03;99768.56;;;12.98;81.30
30730;BME280;17476;48.458;7.928;2023-05-01T05:54:29;99765.59;;;13.01;80.61
30730;BME280;17476;48.458;7.928;2023-05-01T05:56:55;99772.75;;;13.07;80.59
30730;BME280;17476;48.458;7.928;2023-05-01T05:59:21;99777.06;;;13.00;81.56
30730;BME280;17476;48.458;7.928;2023-05-01T06:01:46;99774.94;;;12.89;82.69
30730;BME280;17476;48.458;7.928;2023-05-01T06:04:12;99777.91;;;12.86;83.18
30730;BME280;17476;48.458;7.928;2023-05-01T06:06:41;99773.38;;;12.95;83.41
30730;BME280;17476;48.458;7.928;2023-05-01T06:09:07;99788.75;;;12.98;83.13
30730;BME280;17476;48.458;7.928;2023-05-01T06:11:33;99775.81;;;13.11;81.88
30730;BME280;17476;48.458;7.928;2023-05-01T06:13:59;99781.50;;;13.29;80.94
30730;BME280;17476;48.458;7.928;2023-05-01T06:16:25;99781.03;;;13.26;81.08
30730;BME280;17476;48.458;7.928;2023-05-01T06:18:51;99779.34;;;13.03;82.60
30730;BME280;17476;48.458;7.928;2023-05-01T06:21:17;99784.50;;;13.11;83.41
30730;BME280;17476;48.458;7.928;2023-05-01T06:23:43;99784.28;;;13.13;82.38
30730;BME280;17476;48.458;7.928;2023-05-01T06:26:08;99796.53;;;13.06;83.12
30730;BME280;17476;48.458;7.928;2023-05-01T06:28:34;99793.19;;;13.12;83.22
30730;BME280;17476;48.458;7.928;2023-05-01T06:31:00;99796.00;;;13.25;82.56
30730;BME280;17476;48.458;7.928;2023-05-01T06:33:26;99795.78;;;13.42;81.15
30730;BME280;17476;48.458;7.928;2023-05-01T06:35:51;99794.47;;;13.52;81.41
30730;BME280;17476;48.458;7.928;2023-05-01T06:38:19;99790.63;;;13.70;80.64
30730;BME280;17476;48.458;7.928;2023-05-01T06:40:46;99792.44;;;13.69;81.76
30730;BME280;17476;48.458;7.928;2023-05-01T06:43:13;99786.38;;;13.69;81.56
30730;BME280;17476;48.458;7.928;2023-05-01T06:45:39;99800.47;;;13.68;81.64
30730;BME280;17476;48.458;7.928;2023-05-01T06:48:06;99794.94;;;13.77;81.53
30730;BME280;17476;48.458;7.928;2023-05-01T06:50:32;99798.38;;;13.78;81.79
30730;BME280;17476;48.458;7.928;2023-05-01T06:52:58;99799.38;;;13.77;82.87
30730;BME280;17476;48.458;7.928;2023-05-01T06:55:27;99803.94;;;13.68;84.09
30730;BME280;17476;48.458;7.928;2023-05-01T06:57:57;99803.13;;;13.68;85.58
30730;BME280;17476;48.458;7.928;2023-05-01T07:00:23;99810.63;;;13.71;85.46
30730;BME280;17476;48.458;7.928;2023-05-01T07:02:49;99804.50;;;13.63;86.10
30730;BME280;17476;48.458;7.928;2023-05-01T07:05:15;99800.13;;;13.71;85.51
30730;BME280;17476;48.458;7.928;2023-05-01T07:07:41;99801.19;;;13.76;84.56
30730;BME280;17476;48.458;7.928;2023-05-01T07:10:07;99798.00;;;13.81;86.28
30730;BME280;17476;48.458;7.928;2023-05-01T07:12:33;99801.44;;;13.81;86.21
30730;BME280;17476;48.458;7.928;2023-05-01T07:14:59;99799.88;;;13.87;86.13
30730;BME280;17476;48.458;7.928;2023-05-01T07:17:25;99802.56;;;13.93;85.44
30730;BME280;17476;48.458;7.928;2023-05-01T07:19:51;99809.28;;;13.96;85.64
30730;BME280;17476;48.458;7.928;2023-05-01T07:22:18;99805.41;;;14.20;84.27
30730;BME280;17476;48.458;7.928;2023-05-01T07:24:44;99804.09;;;14.31;85.63
30730;BME280;17476;48.458;7.928;2023-05-01T07:27:10;99797.81;;;14.32;83.69
30730;BME280;17476;48.458;7.928;2023-05-01T07:29:37;99797.59;;;14.55;84.39
30730;BME280;17476;48.458;7.928;2023-05-01T07:32:04;99798.91;;;14.65;84.74
30730;BME280;17476;48.458;7.928;2023-05-01T07:34:31;99796.63;;;14.62;84.76
30730;BME280;17476;48.458;7.928;2023-05-01T07:36:57;99796.53;;;14.49;85.58
30730;BME280;17476;48.458;7.928;2023-05-01T07:39:23;99797.34;;;14.78;84.44
30730;BME280;17476;48.458;7.928;2023-05-01T07:41:49;99793.59;;;15.00;84.07
30730;BME280;17476;48.458;7.928;2023-05-01T07:44:15;99783.16;;;15.20;82.11
30730;BME280;17476;48.458;7.928;2023-05-01T07:46:41;99786.44;;;15.35;81.24
30730;BME280;17476;48.458;7.928;2023-05-01T07:49:07;99783.25;;;15.53;80.45
30730;BME280;17476;48.458;7.928;2023-05-01T07:51:32;99784.34;;;15.78;79.37
30730;BME280;17476;48.458;7.928;2023-05-01T07:53:58;99783.94;;;15.95;78.29
30730;BME280;17476;48.458;7.928;2023-05-01T07:56:29;99786.97;;;16.05;77.17
30730;BME280;17476;48.458;7.928;2023-05-01T07:58:56;99786.59;;;16.21;75.88
30730;BME280;17476;48.458;7.928;2023-05-01T08:01:22;99790.63;;;16.24;75.30
30730;BME280;17476;48.458;7.928;2023-05-01T08:03:48;99787.78;;;16.25;75.45
30730;BME280;17476;48.458;7.928;2023-05-01T08:06:14;99792.47;;;16.17;74.93
30730;BME280;17476;48.458;7.928;2023-05-01T08:08:40;99790.25;;;16.20;75.42
30730;BME280;17476;48.458;7.928;2023-05-01T08:11:05;99788.41;;;16.41;74.91
30730;BME280;17476;48.458;7.928;2023-05-01T08:13:31;99791.03;;;16.47;74.93
30730;BME280;17476;48.458;7.928;2023-05-01T08:16:01;99793.66;;;16.54;74.69
30730;BME280;17476;48.458;7.928;2023-05-01T08:18:28;99791.22;;;16.52;74.26
30730;BME280;17476;48.458;7.928;2023-05-01T08:20:54;99793.66;;;16.67;74.21
30730;BME280;17476;48.458;7.928;2023-05-01T08:23:20;99791.59;;;16.82;73.89
30730;BME280;17476;48.458;7.928;2023-05-01T08:25:46;99786.09;;;16.90;74.33
30730;BME280;17476;48.458;7.928;2023-05-01T08:28:16;99795.06;;;17.34;72.50
30730;BME280;17476;48.458;7.928;2023-05-01T08:30:42;99789.19;;;17.64;70.19
30730;BME280;17476;48.458;7.928;2023-05-01T08:33:12;99785.31;;;17.98;71.00
30730;BME280;17476;48.458;7.928;2023-05-01T08:35:38;99784.97;;;18.38;68.15
30730;BME280;17476;48.458;7.928;2023-05-01T08:38:04;99781.69;;;18.61;67.76
30730;BME280;17476;48.458;7.928;2023-05-01T08:40:36;99780.56;;;18.75;67.75
30730;BME280;17476;48.458;7.928;2023-05-01T08:43:05;99791.13;;;18.57;64.85
30730;BME280;17476;48.458;7.928;2023-05-01T08:45:33;99791.63;;;18.65;66.92
30730;BME280;17476;48.458;7.928;2023-05-01T08:48:05;99785.69;;;18.88;66.83
30730;BME280;17476;48.458;7.928;2023-05-01T08:50:35;99779.50;;;19.13;64.01
30730;BME280;17476;48.458;7.928;2023-05-01T08:53:04;99787.09;;;19.09;66.97
30730;BME280;17476;48.458;7.928;2023-05-01T08:55:31;99777.00;;;19.48;62.94
30730;BME280;17476;48.458;7.928;2023-05-01T08:57:58;99776.97;;;19.66;59.82
30730;BME280;17476;48.458;7.928;2023-05-01T09:00:24;99777.66;;;20.27;61.11
30730;BME280;17476;48.458;7.928;2023-05-01T09:02:51;99778.34;;;20.34;59.37
30730;BME280;17476;48.458;7.928;2023-05-01T09:05:19;99775.91;;;20.32;58.67
30730;BME280;17476;48.458;7.928;2023-05-01T09:07:46;99775.91;;;20.21;60.94
30730;BME280;17476;48.458;7.928;2023-05-01T09:10:15;99776.81;;;20.14;60.31
30730;BME280;17476;48.458;7.928;2023-05-01T09:12:41;99772.84;;;19.82;62.22
30730;BME280;17476;48.458;7.928;2023-05-01T09:15:11;99771.47;;;19.91;62.14
30730;BME280;17476;48.458;7.928;2023-05-01T09:17:37;99767.03;;;19.61;62.93
30730;BME280;17476;48.458;7.928;2023-05-01T09:20:04;99768.38;;;19.94;66.75
30730;BME280;17476;48.458;7.928;2023-05-01T09:22:32;99762.56;;;20.91;61.97
30730;BME280;17476;48.458;7.928;2023-05-01T09:24:58;99754.59;;;21.76;58.05
30730;BME280;17476;48.458;7.928;2023-05-01T09:27:25;99759.47;;;22.52;56.77
30730;BME280;17476;48.458;7.928;2023-05-01T09:29:52;99756.13;;;22.61;54.20
30730;BME280;17476;48.458;7.928;2023-05-01T09:32:25;99758.81;;;22.83;56.76
30730;BME280;17476;48.458;7.928;2023-05-01T09:35:11;99751.38;;;23.07;52.48
30730;BME280;17476;48.458;7.928;2023-05-01T09:37:38;99753.34;;;22.73;52.93
30730;BME280;17476;48.458;7.928;2023-05-01T09:40:10;99753.44;;;22.61;54.96
30730;BME280;17476;48.458;7.928;2023-05-01T09:42:51;99749.59;;;22.91;52.94
30730;BME280;17476;48.458;7.928;2023-05-01T09:45:17;99746.78;;;23.57;50.79
30730;BME280;17476;48.458;7.928;2023-05-01T09:47:48;99748.41;;;23.04;52.41
30730;BME280;17476;48.458;7.928;2023-05-01T09:50:33;99752.53;;;22.90;51.29
30730;BME280;17476;48.458;7.928;2023-05-01T09:53:04;99743.94;;;22.87;51.99
30730;BME280;17476;48.458;7.928;2023-05-01T09:55:32;99740.00;;;23.17;51.09
30730;BME280;17476;48.458;7.928;2023-05-01T09:57:58;99748.56;;;23.19;49.12
30730;BME280;17476;48.458;7.928;2023-05-01T10:00:24;99744.09;;;22.20;52.00
30730;BME280;17476;48.458;7.928;2023-05-01T10:02:51;99746.13;;;22.30;52.57
30730;BME280;17476;48.458;7.928;2023-05-01T10:05:17;99738.16;;;22.74;52.33
30730;BME280;17476;48.458;7.928;2023-05-01T10:07:59;99749.53;;;22.69;50.84
30730;BME280;17476;48.458;7.928;2023-05-01T10:10:26;99742.09;;;23.15;52.38
30730;BME280;17476;48.458;7.928;2023-05-01T10:12:52;99753.63;;;22.94;51.74
30730;BME280;17476;48.458;7.928;2023-05-01T10:15:18;99738.53;;;23.58;51.68
30730;BME280;17476;48.458;7.928;2023-05-01T10:17:49;99739.31;;;23.86;49.23
30730;BME280;17476;48.458;7.928;2023-05-01T10:20:17;99744.19;;;23.62;49.24
30730;BME280;17476;48.458;7.928;2023-05-01T10:22:43;99748.44;;;23.36;49.37
30730;BME280;17476;48.458;7.928;2023-05-01T10:25:11;99734.22;;;23.84;49.51
30730;BME280;17476;48.458;7.928;2023-05-01T10:27:39;99729.41;;;24.71;47.69
30730;BME280;17476;48.458;7.928;2023-05-01T10:30:09;99725.56;;;24.51;45.88
30730;BME280;17476;48.458;7.928;2023-05-01T10:32:36;99723.19;;;25.38;47.25
30730;BME280;17476;48.458;7.928;2023-05-01T10:35:17;99733.41;;;25.77;43.01
30730;BME280;17476;48.458;7.928;2023-05-01T10:38:06;99735.22;;;26.43;43.67
30730;BME280;17476;48.458;7.928;2023-05-01T10:43:25;99722.56;;;27.13;44.30
30730;BME280;17476;48.458;7.928;2023-05-01T10:51:13;99718.13;;;25.77;40.79
30730;BME280;17476;48.458;7.928;2023-05-01T10:53:43;99724.28;;;26.08;42.71
30730;BME280;17476;48.458;7.928;2023-05-01T10:56:39;99714.34;;;25.22;45.57
30730;BME280;17476;48.458;7.928;2023-05-01T10:59:05;99710.31;;;25.30;42.25
30730;BME280;17476;48.458;7.928;2023-05-01T11:01:37;99711.78;;;24.85;44.08
30730;BME280;17476;48.458;7.928;2023-05-01T11:15:11;99705.28;;;25.84;40.35
30730;BME280;17476;48.458;7.928;2023-05-01T11:23:01;99702.72;;;26.39;40.82
30730;BME280;17476;48.458;7.928;2023-05-01T11:25:29;99685.69;;;26.74;41.47
30730;BME280;17476;48.458;7.928;2023-05-01T11:28:01;99681.84;;;27.35;41.11
30730;BME280;17476;48.458;7.928;2023-05-01T11:30:37;99674.22;;;27.18;39.37
30730;BME280;17476;48.458;7.928;2023-05-01T11:33:03;99682.34;;;26.38;39.01
30730;BME280;17476;48.458;7.928;2023-05-01T11:35:31;99669.16;;;27.11;39.23
30730;BME280;17476;48.458;7.928;2023-05-01T11:37:57;99673.38;;;26.73;38.84
30730;BME280;17476;48.458;7.928;2023-05-01T11:40:29;99663.50;;;27.13;39.01
30730;BME280;17476;48.458;7.928;2023-05-01T11:43:06;99666.22;;;27.42;36.14
30730;BME280;17476;48.458;7.928;2023-05-01T11:45:34;99661.28;;;27.54;36.67
30730;BME280;17476;48.458;7.928;2023-05-01T11:48:00;99658.91;;;28.29;35.33
30730;BME280;17476;48.458;7.928;2023-05-01T11:50:34;99674.66;;;26.81;36.12
30730;BME280;17476;48.458;7.928;2023-05-01T11:53:01;99674.38;;;26.23;38.47
30730;BME280;17476;48.458;7.928;2023-05-01T11:55:34;99671.22;;;25.90;37.44
30730;BME280;17476;48.458;7.928;2023-05-01T11:58:00;99673.34;;;26.03;38.07
30730;BME280;17476;48.458;7.928;2023-05-01T12:00:35;99680.06;;;25.96;37.06
30730;BME280;17476;48.458;7.928;2023-05-01T12:03:14;99723.44;;;26.18;39.74
30730;BME280;17476;48.458;7.928;2023-05-01T12:05:42;99701.47;;;25.14;38.33
30730;BME280;17476;48.458;7.928;2023-05-01T12:08:13;99706.50;;;24.33;40.07
30730;BME280;17476;48.458;7.928;2023-05-01T12:10:42;99708.09;;;23.27;43.40
30730;BME280;17476;48.458;7.928;2023-05-01T12:13:11;99708.06;;;22.78;47.31
30730;BME280;17476;48.458;7.928;2023-05-01T12:15:46;99714.09;;;22.47;47.37
30730;BME280;17476;48.458;7.928;2023-05-01T12:18:14;99724.34;;;22.16;46.66
30730;BME280;17476;48.458;7.928;2023-05-01T12:20:49;99730.94;;;21.63;46.71
30730;BME280;17476;48.458;7.928;2023-05-01T12:23:17;99741.00;;;21.44;50.35
30730;BME280;17476;48.458;7.928;2023-05-01T12:25:45;99736.53;;;21.33;51.38
30730;BME280;17476;48.458;7.928;2023-05-01T12:28:18;99747.22;;;21.21;53.03
30730;BME280;17476;48.458;7.928;2023-05-01T12:30:46;99734.09;;;21.03;55.29
30730;BME280;17476;48.458;7.928;2023-05-01T12:33:19;99741.97;;;20.98;54.30
30730;BME280;17476;48.458;7.928;2023-05-01T12:35:48;99746.63;;;20.79;54.85
30730;BME280;17476;48.458;7.928;2023-05-01T12:38:20;99743.22;;;20.55;57.61
30730;BME280;17476;48.458;7.928;2023-05-01T12:40:57;99734.91;;;20.40;58.29
30730;BME280;17476;48.458;7.928;2023-05-01T12:43:34;99720.81;;;20.28;60.14
30730;BME280;17476;48.458;7.928;2023-05-01T12:46:03;99729.16;;;20.20;60.11
30730;BME280;17476;48.458;7.928;2023-05-01T12:48:30;99724.66;;;20.20;59.65
30730;BME280;17476;48.458;7.928;2023-05-01T12:50:59;99726.84;;;20.00;58.89
30730;BME280;17476;48.458;7.928;2023-05-01T12:53:26;99734.31;;;20.03;59.70
30730;BME280;17476;48.458;7.928;2023-05-01T12:55:57;99729.91;;;19.73;59.94
30730;BME280;17476;48.458;7.928;2023-05-01T12:58:34;99739.47;;;19.32;59.93
30730;BME280;17476;48.458;7.928;2023-05-01T13:01:00;99733.63;;;19.12;59.77
30730;BME280;17476;48.458;7.928;2023-05-01T13:03:28;99749.44;;;19.19;60.40
30730;BME280;17476;48.458;7.928;2023-05-01T13:06:00;99746.25;;;18.98;60.23
30730;BME280;17476;48.458;7.928;2023-05-01T13:08:32;99749.56;;;18.75;60.89
30730;BME280;17476;48.458;7.928;2023-05-01T13:11:15;99751.47;;;18.87;61.14
30730;BME280;17476;48.458;7.928;2023-05-01T13:13:45;99752.28;;;18.87;61.61
30730;BME280;17476;48.458;7.928;2023-05-01T13:16:15;99744.66;;;18.79;62.87
30730;BME280;17476;48.458;7.928;2023-05-01T13:18:48;99750.25;;;18.71;63.54
30730;BME280;17476;48.458;7.928;2023-05-01T13:21:20;99749.28;;;18.84;63.68
30730;BME280;17476;48.458;7.928;2023-05-01T13:26:29;99747.25;;;19.16;63.23
30730;BME280;17476;48.458;7.928;2023-05-01T13:29:02;99751.56;;;18.98;64.01
30730;BME280;17476;48.458;7.928;2023-05-01T13:31:28;99740.97;;;18.80;64.53
30730;BME280;17476;48.458;7.928;2023-05-01T13:33:57;99735.88;;;18.97;63.39
30730;BME280;17476;48.458;7.928;2023-05-01T13:36:23;99735.06;;;19.26;63.52
30730;BME280;17476;48.458;7.928;2023-05-01T13:38:52;99726.34;;;19.68;61.77
30730;BME280;17476;48.458;7.928;2023-05-01T13:41:24;99726.94;;;19.81;61.43
30730;BME280;17476;48.458;7.928;2023-05-01T13:43:55;99724.50;;;20.03;60.09